createdAt,value
2022-12-13T12:18:23.306Z,7.28
2022-12-13T12:21:12.980Z,5.90
2022-12-13T12:23:55.656Z,9.38
2022-12-13T12:26:37.472Z,7.78
2022-12-13T12:29:39.701Z,8.55
2022-12-13T12:32:16.607Z,9.45
2022-12-13T12:34:56.079Z,9.77
2022-12-13T12:37:33.200Z,8.28
2022-12-13T12:40:24.077Z,9.10
2022-12-13T12:43:16.653Z,10.53
2022-12-13T12:46:27.471Z,10.20
2022-12-13T12:58:37.816Z,8.23
2022-12-13T13:01:23.778Z,9.73
2022-12-13T13:04:01.473Z,8.23
2022-12-13T13:06:39.804Z,8.03
2022-12-13T13:09:15.408Z,9.33
2022-12-13T13:11:57.465Z,8.70
2022-12-13T13:14:33.819Z,7.72
2022-12-13T13:17:43.466Z,9.83
2022-12-13T13:20:24.541Z,8.28
2022-12-13T13:23:31.899Z,7.03
2022-12-13T13:25:48.796Z,7.12
2022-12-13T13:28:16.515Z,9.70
2022-12-13T13:31:08.345Z,6.33
2022-12-13T13:33:51.553Z,4.00
2022-12-13T13:36:52.810Z,7.25
2022-12-13T13:40:02.845Z,6.33
2022-12-13T13:42:35.687Z,5.95
2022-12-13T13:48:20.670Z,5.90
2022-12-13T13:51:31.071Z,6.37
2022-12-13T13:54:37.404Z,7.58
2022-12-13T14:00:27.028Z,6.75
2022-12-13T14:03:46.646Z,6.50
2022-12-13T14:07:00.958Z,7.70
2022-12-13T14:10:12.919Z,6.75
2022-12-13T14:13:21.742Z,7.85
2022-12-13T14:16:41.466Z,6.75
2022-12-13T14:19:56.369Z,7.80
2022-12-13T14:22:33.882Z,9.08
2022-12-13T14:25:25.739Z,6.10
2022-12-13T14:28:05.521Z,9.80
2022-12-13T14:30:43.015Z,10.05
2022-12-13T14:33:25.031Z,11.53
2022-12-13T14:35:59.819Z,12.00
2022-12-13T14:38:33.433Z,11.12
2022-12-13T14:41:08.568Z,11.43
2022-12-13T14:43:46.973Z,13.03
2022-12-13T14:46:17.402Z,11.80
2022-12-13T14:48:53.543Z,12.90
2022-12-13T14:51:33.742Z,14.28
2022-12-13T14:54:08.729Z,13.68
2022-12-13T14:56:58.227Z,11.25
2022-12-13T14:59:33.450Z,11.90
2022-12-13T15:02:08.891Z,14.55
2022-12-13T15:04:41.892Z,13.90
2022-12-13T15:07:21.291Z,14.53
2022-12-13T15:09:57.427Z,12.60
2022-12-13T15:12:30.903Z,12.63
2022-12-13T15:15:06.537Z,11.93
2022-12-13T15:17:42.347Z,12.95
2022-12-13T15:20:35.211Z,11.60
2022-12-13T15:23:15.664Z,12.20
2022-12-13T15:25:56.044Z,13.20
2022-12-13T15:28:31.624Z,13.38
2022-12-13T15:31:07.671Z,13.13
2022-12-13T15:33:48.108Z,13.25
2022-12-13T15:36:19.782Z,15.28
2022-12-13T15:39:02.413Z,18.47
2022-12-13T15:41:38.166Z,14.87
2022-12-13T15:44:19.752Z,20.12
2022-12-13T15:46:54.862Z,20.10
2022-12-13T15:49:30.716Z,20.88
2022-12-13T15:52:05.765Z,22.87
2022-12-13T15:54:38.897Z,23.70
2022-12-13T15:57:17.859Z,24.47
2022-12-13T15:59:55.243Z,23.32
2022-12-13T16:02:30.166Z,19.15
2022-12-13T16:05:10.079Z,20.55
2022-12-13T16:07:56.417Z,13.80
2022-12-13T16:10:32.354Z,13.15
2022-12-13T16:13:08.281Z,15.28
2022-12-13T16:15:52.229Z,14.87
2022-12-13T16:18:29.697Z,14.43
2022-12-13T16:21:03.412Z,14.25
2022-12-13T16:23:38.055Z,14.47
2022-12-13T16:26:14.419Z,14.07
2022-12-13T16:28:48.157Z,14.47
2022-12-13T16:31:22.933Z,13.48
2022-12-13T16:33:56.046Z,13.32
2022-12-13T16:36:29.956Z,16.42
2022-12-13T16:39:02.825Z,13.70
2022-12-13T16:41:39.235Z,12.10
2022-12-13T16:44:16.434Z,13.22
2022-12-13T16:47:13.709Z,13.98
2022-12-13T16:49:26.748Z,15.25
2022-12-13T16:52:00.009Z,13.75
2022-12-13T16:54:33.014Z,13.30
2022-12-13T16:57:06.234Z,14.70
2022-12-13T16:59:39.392Z,15.55
2022-12-13T17:02:16.696Z,15.38
2022-12-13T17:04:49.702Z,15.23
2022-12-13T17:07:24.201Z,14.47
2022-12-13T17:09:59.158Z,13.83
2022-12-13T17:12:34.272Z,13.03
2022-12-13T17:15:09.615Z,14.78
2022-12-13T17:17:43.958Z,13.45
2022-12-13T17:20:20.027Z,14.55
2022-12-13T17:22:53.709Z,14.03
2022-12-13T17:25:27.700Z,13.78
2022-12-13T17:28:00.912Z,14.80
2022-12-13T17:30:36.098Z,13.15
2022-12-13T17:33:10.145Z,14.30
2022-12-13T17:35:43.107Z,14.93
2022-12-13T17:38:19.597Z,13.78
2022-12-13T17:40:56.319Z,15.08
2022-12-13T17:43:34.786Z,14.90
2022-12-13T17:46:06.008Z,13.62
2022-12-13T17:48:41.088Z,13.62
2022-12-13T17:53:56.202Z,13.85
2022-12-13T17:59:12.070Z,16.05
2022-12-13T18:01:52.713Z,15.03
2022-12-13T18:04:25.922Z,13.78
2022-12-13T18:06:59.312Z,15.53
2022-12-13T18:09:32.656Z,14.33
2022-12-13T18:12:09.751Z,15.13
2022-12-13T18:14:43.779Z,14.40
2022-12-13T18:17:18.620Z,14.58
2022-12-13T18:19:53.261Z,14.93
2022-12-13T18:22:35.512Z,16.48
2022-12-13T18:25:14.829Z,15.20
2022-12-13T18:27:47.920Z,17.05
2022-12-13T18:30:22.035Z,15.88
2022-12-13T18:32:55.774Z,15.50
2022-12-13T18:35:29.243Z,14.33
2022-12-13T18:38:06.880Z,14.93
2022-12-13T18:40:40.336Z,15.65
2022-12-13T18:43:13.871Z,15.80
2022-12-13T18:45:47.385Z,15.25
2022-12-13T18:48:20.911Z,15.50
2022-12-13T18:51:02.126Z,14.78
2022-12-13T18:53:40.379Z,14.85
2022-12-13T18:56:19.209Z,14.07
2022-12-13T18:58:58.223Z,14.90
2022-12-13T19:01:38.833Z,13.98
2022-12-13T19:04:17.268Z,14.00
2022-12-13T19:06:53.813Z,14.18
2022-12-13T19:09:28.904Z,14.95
2022-12-13T19:12:03.093Z,14.78
2022-12-13T19:14:36.230Z,14.23
2022-12-13T19:17:13.534Z,14.63
2022-12-13T19:19:48.635Z,15.68
2022-12-13T19:22:27.799Z,15.13
2022-12-13T19:28:01.745Z,15.30
2022-12-13T19:30:38.115Z,14.50
2022-12-13T19:33:19.014Z,13.50
2022-12-13T19:36:20.050Z,14.68
2022-12-13T19:39:20.945Z,15.75
2022-12-13T19:42:06.083Z,14.38
2022-12-13T19:44:46.653Z,14.23
2022-12-13T19:47:23.840Z,15.65
2022-12-13T19:50:23.016Z,15.70
2022-12-13T19:53:03.626Z,15.32
2022-12-13T19:55:42.203Z,14.80
2022-12-13T19:58:28.293Z,15.10
2022-12-13T20:01:30.405Z,12.90
2022-12-13T20:04:07.077Z,11.00
2022-12-13T20:06:43.980Z,8.28
2022-12-13T20:09:24.715Z,8.18
2022-12-13T20:12:04.280Z,5.70
2022-12-13T20:14:43.508Z,7.30
2022-12-13T20:17:17.397Z,5.25
2022-12-13T20:22:49.640Z,5.47
2022-12-13T20:25:27.970Z,4.55
2022-12-13T20:28:16.032Z,4.15
2022-12-13T20:30:53.175Z,6.00
2022-12-13T20:33:32.764Z,4.05
2022-12-13T20:36:27.753Z,4.62
2022-12-13T20:38:49.099Z,5.90
2022-12-13T20:41:27.635Z,7.12
2022-12-13T20:44:02.613Z,5.03
2022-12-13T20:46:38.091Z,4.92
2022-12-13T20:49:17.975Z,6.78
2022-12-13T20:51:56.918Z,5.00
2022-12-13T20:57:06.426Z,5.53
2022-12-13T20:59:39.602Z,6.65
2022-12-13T21:02:14.053Z,5.42
2022-12-13T21:04:47.271Z,6.25
2022-12-13T21:07:22.025Z,8.05
2022-12-13T21:09:57.725Z,7.47
2022-12-13T21:12:30.823Z,6.35
2022-12-13T21:15:03.994Z,7.90
2022-12-13T21:17:39.220Z,6.62
2022-12-13T21:20:13.289Z,8.08
2022-12-13T21:22:47.143Z,11.30
2022-12-13T21:25:20.747Z,8.38
2022-12-13T21:27:55.246Z,7.55
2022-12-13T21:30:29.711Z,7.12
2022-12-13T21:33:02.964Z,7.37
2022-12-13T21:35:36.411Z,7.35
2022-12-13T21:38:10.737Z,7.03
2022-12-13T21:40:48.332Z,8.13
2022-12-13T21:43:28.816Z,6.12
2022-12-13T21:48:34.716Z,5.25
2022-12-13T21:51:10.465Z,6.75
2022-12-13T21:53:44.188Z,6.70
2022-12-13T21:56:37.443Z,8.20
2022-12-13T21:59:22.389Z,7.15
2022-12-13T22:02:19.121Z,9.53
2022-12-13T22:04:57.750Z,11.90
2022-12-13T22:07:32.985Z,9.38
2022-12-13T22:10:07.459Z,9.58
2022-12-13T22:12:42.654Z,5.92
2022-12-13T22:15:17.183Z,6.33
2022-12-13T22:17:50.455Z,7.15
2022-12-13T22:20:23.637Z,5.03
2022-12-13T22:22:58.226Z,13.88
2022-12-13T22:25:31.577Z,6.40
2022-12-13T22:28:16.744Z,5.80
2022-12-13T23:01:09.782Z,6.87
2022-12-13T23:03:44.481Z,6.75
2022-12-13T23:06:20.000Z,5.05
2022-12-13T23:08:54.996Z,5.60
2022-12-13T23:11:48.630Z,4.53
2022-12-13T23:14:26.769Z,6.12
2022-12-13T23:16:59.988Z,4.87
2022-12-13T23:19:52.852Z,5.58
2022-12-13T23:22:10.001Z,6.47
2022-12-13T23:24:43.333Z,5.85
2022-12-13T23:27:16.634Z,4.12
2022-12-13T23:29:50.182Z,6.15
2022-12-13T23:32:25.727Z,7.50
2022-12-13T23:34:59.713Z,6.58
2022-12-13T23:37:35.670Z,6.33
2022-12-13T23:40:11.932Z,4.78
2022-12-13T23:42:46.132Z,7.33
2022-12-13T23:45:19.401Z,5.25
2022-12-13T23:47:52.528Z,6.60
2022-12-13T23:50:29.036Z,7.45
2022-12-13T23:53:02.224Z,5.78
2022-12-13T23:55:38.311Z,6.50
2022-12-13T23:58:12.534Z,5.50
